Time;durP1;ratioP1;P1;durP2;ratioP2;P2;SDS_P1;SDS_P2;PMS_P1;PMS_P2;Temp;Humidity;BMP_temperature;BMP_pressure;BME280_temperature;BME280_humidity;BME280_pressure;Samples;Min_cycle;Max_cycle;Signal;HPM_P1;HPM_P2
2023/09/29 00:01:03;;;;;;;16.10;12.30;;;;;;;16.09;58.53;100868.16;111616;1247;22254;-80
2023/09/29 00:03:41;;;;;;;17.40;12.10;;;;;;;16.06;58.52;100867.96;111767;1247;21958;-80
2023/09/29 00:06:15;;;;;;;18.60;12.00;;;;;;;16.05;58.68;100868.36;111818;1247;24321;-78
2023/09/29 00:08:47;;;;;;;16.80;12.70;;;;;;;16.03;58.54;100867.42;111536;1251;23590;-78
2023/09/29 00:11:21;;;;;;;17.50;11.80;;;;;;;16.01;58.64;100869.95;111420;1254;23742;-80
2023/09/29 00:13:52;;;;;;;23.40;13.60;;;;;;;15.98;58.79;100868.33;111228;1254;22079;-79
2023/09/29 00:16:48;;;;;;;22.50;13.20;;;;;;;15.95;58.98;100870.45;111345;1254;21957;-80
2023/09/29 00:19:21;;;;;;;18.80;12.80;;;;;;;15.95;59.01;100876.25;111841;1246;22108;-80
2023/09/29 00:21:52;;;;;;;15.90;12.30;;;;;;;15.94;58.93;100872.95;111841;1248;23005;-80
2023/09/29 00:24:30;;;;;;;17.20;12.90;;;;;;;15.93;58.92;100877.73;112003;1248;22940;-80
2023/09/29 00:27:04;;;;;;;16.40;12.50;;;;;;;15.93;59.10;100877.77;111498;1249;22838;-79
2023/09/29 00:29:38;;;;;;;18.80;13.20;;;;;;;15.89;59.29;100876.91;112170;1245;22005;-80
2023/09/29 00:32:19;;;;;;;16.90;12.80;;;;;;;15.86;59.31;100873.04;112151;1245;23707;-79
2023/09/29 00:34:48;;;;;;;16.80;13.10;;;;;;;15.84;59.23;100873.83;112168;1245;21967;-79
2023/09/29 00:37:18;;;;;;;23.40;12.00;;;;;;;15.83;59.25;100874.39;112141;1245;21963;-80
2023/09/29 00:40:00;;;;;;;15.00;12.80;;;;;;;15.74;59.34;100863.09;112634;1239;22006;-79
2023/09/29 00:42:36;;;;;;;16.10;12.80;;;;;;;15.74;59.49;100863.48;112395;1242;21951;-79
2023/09/29 00:45:16;;;;;;;23.10;13.30;;;;;;;15.76;59.60;100869.67;112650;1242;21989;-80
2023/09/29 00:47:52;;;;;;;15.90;12.50;;;;;;;15.74;59.66;100868.70;112464;1242;21931;-79
2023/09/29 00:50:26;;;;;;;18.10;12.10;;;;;;;15.71;59.80;100865.36;112468;1242;21951;-80
2023/09/29 00:53:02;;;;;;;18.00;13.30;;;;;;;15.63;60.00;100859.41;112160;1236;23879;-79
2023/09/29 00:55:41;;;;;;;20.30;13.40;;;;;;;15.63;60.01;100862.55;111940;1244;21969;-79
2023/09/29 00:58:13;;;;;;;20.20;13.40;;;;;;;15.59;60.07;100857.67;111968;1244;24284;-81
2023/09/29 01:00:47;;;;;;;18.30;12.80;;;;;;;15.58;60.17;100854.58;112178;1239;23784;-80
2023/09/29 01:03:48;;;;;;;17.60;13.90;;;;;;;15.52;60.24;100850.52;112364;1244;22705;-81
2023/09/29 01:06:21;;;;;;;18.60;13.20;;;;;;;15.50;60.44;100847.27;112437;1244;22870;-81
2023/09/29 01:09:12;;;;;;;22.70;14.90;;;;;;;15.47;60.61;100850.73;112434;1244;21945;-80
2023/09/29 01:11:51;;;;;;;16.50;12.70;;;;;;;15.47;60.54;100849.70;112654;1238;21947;-81
2023/09/29 01:14:30;;;;;;;19.90;14.50;;;;;;;15.48;60.66;100853.85;112926;1238;23011;-80
2023/09/29 01:17:05;;;;;;;18.40;14.70;;;;;;;15.48;60.66;100851.92;113229;1238;23691;-79
2023/09/29 01:19:52;;;;;;;16.90;13.30;;;;;;;15.48;60.58;100854.20;112860;1238;22398;-80
2023/09/29 01:22:30;;;;;;;21.20;14.20;;;;;;;15.45;60.70;100855.42;113339;1233;21950;-81
2023/09/29 01:25:10;;;;;;;19.40;13.40;;;;;;;15.44;60.76;100852.84;113468;1233;22429;-81
2023/09/29 01:27:48;;;;;;;21.10;13.50;;;;;;;15.44;60.77;100849.70;113657;1233;23679;-80
2023/09/29 01:30:35;;;;;;;17.80;14.30;;;;;;;15.41;60.87;100846.86;113224;1238;23160;-82
2023/09/29 01:33:06;;;;;;;19.30;13.50;;;;;;;15.39;60.88;100844.16;112973;1238;22960;-83
2023/09/29 01:35:36;;;;;;;16.20;14.10;;;;;;;15.38;61.00;100850.67;113120;1238;23850;-81
2023/09/29 01:38:15;;;;;;;23.70;14.70;;;;;;;15.32;61.01;100846.41;113069;1229;21987;-81
2023/09/29 01:40:50;;;;;;;18.70;14.00;;;;;;;15.34;60.96;100854.20;112387;1243;21952;-80
2023/09/29 01:43:34;;;;;;;15.10;13.50;;;;;;;15.34;60.99;100860.67;112134;1244;23107;-79
2023/09/29 01:46:09;;;;;;;25.50;13.90;;;;;;;15.30;61.11;100855.45;111926;1244;23692;-79
2023/09/29 01:48:41;;;;;;;18.70;13.80;;;;;;;15.28;61.16;100852.59;112428;1239;23743;-79
2023/09/29 01:51:22;;;;;;;21.10;13.60;;;;;;;15.25;61.43;100856.05;112827;1239;21986;-78
2023/09/29 01:53:55;;;;;;;25.60;14.90;;;;;;;15.23;61.46;100853.02;112866;1239;23016;-81
2023/09/29 01:56:31;;;;;;;15.30;13.40;;;;;;;15.20;61.55;100851.23;112879;1239;23028;-81
2023/09/29 01:59:22;;;;;;;19.90;14.60;;;;;;;15.16;61.60;100850.70;112945;1233;21941;-82
2023/09/29 02:02:01;;;;;;;15.00;13.10;;;;;;;15.13;61.81;100848.61;112566;1239;21964;-82
2023/09/29 02:04:55;;;;;;;16.80;14.10;;;;;;;15.09;61.90;100848.98;112862;1239;23042;-80
2023/09/29 02:07:49;;;;;;;17.40;14.70;;;;;;;15.08;62.00;100852.69;112446;1244;21957;-82
2023/09/29 02:10:24;;;;;;;22.40;14.50;;;;;;;15.08;62.09;100854.98;111783;1250;22570;-82
2023/09/29 02:13:00;;;;;;;19.00;13.80;;;;;;;15.07;62.23;100852.73;111380;1250;23590;-83
2023/09/29 02:15:37;;;;;;;18.50;13.60;;;;;;;15.07;62.19;100854.34;111562;1249;21954;-79
2023/09/29 02:18:11;;;;;;;18.00;14.20;;;;;;;15.05;62.10;100850.54;111418;1250;21959;-80
2023/09/29 02:21:24;;;;;;;20.30;14.20;;;;;;;15.02;62.32;100847.55;111081;1246;23038;-79
2023/09/29 02:24:07;;;;;;;15.90;13.80;;;;;;;15.00;62.47;100849.54;111235;1255;25016;-80
2023/09/29 02:26:41;;;;;;;16.30;14.30;;;;;;;15.00;62.44;100850.77;111514;1251;22306;-80
2023/09/29 02:29:34;;;;;;;17.70;14.40;;;;;;;15.00;62.42;100848.88;111475;1251;22010;-80
2023/09/29 02:32:10;;;;;;;20.40;14.80;;;;;;;14.99;62.41;100848.55;111274;1256;21968;-80
2023/09/29 02:35:00;;;;;;;15.60;14.00;;;;;;;14.96;62.38;100848.17;110951;1259;23734;-80
2023/09/29 02:37:43;;;;;;;16.40;13.40;;;;;;;14.94;62.66;100848.10;110995;1258;22680;-80
2023/09/29 02:40:24;;;;;;;17.80;14.20;;;;;;;14.93;62.68;100843.77;111753;1250;22691;-80
2023/09/29 02:43:03;;;;;;;18.70;13.80;;;;;;;14.94;62.82;100838.96;111568;1250;21988;-81
2023/09/29 02:46:01;;;;;;;17.90;14.00;;;;;;;14.93;62.73;100837.31;111720;1250;24392;-81
2023/09/29 02:48:43;;;;;;;20.00;15.30;;;;;;;14.89;62.82;100838.69;112117;1244;23696;-81
2023/09/29 02:51:35;;;;;;;19.50;14.10;;;;;;;14.81;62.88;100836.43;112975;1239;22305;-81
2023/09/29 02:54:22;;;;;;;19.00;14.60;;;;;;;14.76;62.93;100834.06;112431;1241;23149;-80
2023/09/29 02:57:26;;;;;;;;;;;;;;;;;;;;;
2023/09/29 03:00:12;;;;;;;18.10;15.10;;;;;;;14.67;63.30;100834.13;111735;1252;21985;-82
2023/09/29 03:03:03;;;;;;;17.80;15.10;;;;;;;14.64;63.44;100833.03;111435;1252;22022;-80
2023/09/29 03:05:50;;;;;;;20.90;14.90;;;;;;;14.61;63.49;100832.46;111681;1248;21957;-79
2023/09/29 03:08:44;;;;;;;17.70;15.40;;;;;;;14.60;63.69;100832.52;111883;1248;22178;-79
2023/09/29 03:11:24;;;;;;;19.60;15.60;;;;;;;14.56;63.69;100829.73;111650;1248;21967;-79
2023/09/29 03:14:16;;;;;;;19.80;15.00;;;;;;;14.53;63.85;100830.74;111486;1248;22110;-79
2023/09/29 03:16:49;;;;;;;18.40;15.20;;;;;;;14.49;64.03;100830.20;111785;1249;22408;-79
2023/09/29 03:19:36;;;;;;;20.70;16.10;;;;;;;14.47;64.06;100833.46;112078;1243;22118;-80
2023/09/29 03:22:11;;;;;;;18.60;16.30;;;;;;;14.44;64.09;100829.59;112410;1243;21991;-80
2023/09/29 03:24:46;;;;;;;21.60;15.30;;;;;;;14.41;64.18;100827.77;112222;1243;23616;-80
2023/09/29 03:27:38;;;;;;;17.00;14.90;;;;;;;14.39;64.30;100828.04;112300;1243;21962;-82
2023/09/29 03:30:16;;;;;;;19.50;15.10;;;;;;;14.37;64.40;100822.69;109418;1243;3618945;-81
2023/09/29 03:33:13;;;;;;;18.50;15.00;;;;;;;14.34;64.58;100823.52;113078;1238;22389;-82
2023/09/29 03:35:56;;;;;;;19.40;15.10;;;;;;;14.29;64.59;100815.21;113236;1233;23559;-82
2023/09/29 03:39:09;;;;;;;21.00;15.40;;;;;;;14.29;64.91;100822.88;113417;1233;21937;-83
2023/09/29 03:41:55;;;;;;;16.10;13.70;;;;;;;14.27;65.06;100818.11;112877;1241;23040;-79
2023/09/29 03:44:33;;;;;;;23.80;15.70;;;;;;;14.26;65.19;100813.95;112622;1241;23110;-79
2023/09/29 03:47:03;;;;;;;16.30;14.70;;;;;;;14.26;65.29;100812.55;112305;1242;22340;-78
2023/09/29 03:50:11;;;;;;;17.40;15.50;;;;;;;14.23;65.34;100809.15;112878;1241;21949;-80
2023/09/29 03:52:55;;;;;;;17.50;13.80;;;;;;;14.21;65.50;100804.35;112666;1242;21957;-79
2023/09/29 03:55:28;;;;;;;15.30;13.40;;;;;;;14.19;65.52;100802.52;112104;1246;21985;-80
2023/09/29 03:58:05;;;;;;;15.30;13.70;;;;;;;14.18;65.52;100802.57;112133;1246;23059;-80
2023/09/29 04:00:38;;;;;;;16.80;15.00;;;;;;;14.16;65.68;100797.92;111847;1246;21961;-80
2023/09/29 04:03:19;;;;;;;17.50;13.80;;;;;;;14.15;65.78;100800.45;111869;1246;22652;-80
2023/09/29 04:05:58;;;;;;;17.10;14.50;;;;;;;14.14;65.82;100796.30;111756;1251;22016;-80
2023/09/29 04:08:30;;;;;;;25.50;14.90;;;;;;;14.14;65.95;100797.51;111229;1254;21975;-80
2023/09/29 04:11:07;;;;;;;20.40;14.00;;;;;;;14.08;65.89;100783.77;110755;1256;23708;-79
2023/09/29 04:13:43;;;;;;;17.40;13.50;;;;;;;14.13;65.86;100794.77;110783;1255;21965;-79
2023/09/29 04:16:18;;;;;;;18.10;14.40;;;;;;;14.12;65.81;100797.44;110976;1255;22016;-79
2023/09/29 04:18:56;;;;;;;19.70;14.50;;;;;;;14.09;66.02;100796.14;111296;1249;23690;-78
2023/09/29 04:21:26;;;;;;;19.90;14.70;;;;;;;14.08;66.14;100795.34;111582;1248;22377;-78
2023/09/29 04:24:04;;;;;;;17.70;14.60;;;;;;;14.05;66.25;100797.02;111355;1248;21952;-79
2023/09/29 04:26:55;;;;;;;16.40;14.40;;;;;;;14.03;66.34;100794.86;111463;1253;21990;-79
2023/09/29 04:29:31;;;;;;;18.70;14.50;;;;;;;14.00;66.51;100796.04;111219;1253;21987;-79
2023/09/29 04:32:15;;;;;;;16.20;14.70;;;;;;;13.98;66.60;100792.23;111473;1244;23040;-80
2023/09/29 04:34:58;;;;;;;18.80;15.00;;;;;;;13.99;66.62;100793.42;112448;1243;23640;-79
2023/09/29 04:37:37;;;;;;;18.40;15.00;;;;;;;14.01;66.67;100795.65;112206;1243;22670;-79
2023/09/29 04:40:12;;;;;;;17.10;14.20;;;;;;;14.02;66.71;100798.20;111818;1241;21956;-76
2023/09/29 04:42:47;;;;;;;17.50;15.10;;;;;;;14.02;66.74;100794.88;111584;1245;22999;-76
2023/09/29 04:45:51;;;;;;;16.00;14.10;;;;;;;14.01;66.88;100791.96;111719;1246;23018;-77
2023/09/29 04:48:27;;;;;;;;;;;;;;;14.00;66.96;100793.58;111839;1246;23024;-76
2023/09/29 04:51:05;;;;;;;17.80;15.10;;;;;;;13.93;67.08;100793.71;111993;1242;21981;-78
2023/09/29 04:54:25;;;;;;;40.10;36.10;;;;;;;13.92;67.29;100790.79;111862;1246;23622;-77
2023/09/29 04:57:05;;;;;;;19.70;15.70;;;;;;;13.94;67.23;100791.04;111542;1251;21960;-77
2023/09/29 04:59:44;;;;;;;16.90;15.10;;;;;;;13.94;67.14;100785.63;111906;1244;22414;-78
2023/09/29 05:02:21;;;;;;;18.90;16.00;;;;;;;14.02;67.26;100793.29;111552;1249;22416;-78
2023/09/29 05:04:59;;;;;;;17.10;15.30;;;;;;;14.02;67.23;100790.30;111948;1244;21961;-79
2023/09/29 05:08:00;;;;;;;30.90;15.10;;;;;;;14.05;67.16;100795.27;111675;1248;22048;-77
2023/09/29 05:10:46;;;;;;;18.00;13.80;;;;;;;14.08;67.21;100790.27;111852;1248;21986;-77
2023/09/29 05:13:32;;;;;;;19.50;15.30;;;;;;;14.10;67.14;100792.09;111660;1248;21967;-77
2023/09/29 05:16:20;;;;;;;17.20;15.20;;;;;;;14.13;67.16;100794.58;111846;1246;21987;-78
2023/09/29 05:19:15;;;;;;;21.30;16.30;;;;;;;14.15;67.25;100791.84;111906;1247;23010;-77
2023/09/29 05:22:14;;;;;;;19.60;15.50;;;;;;;14.19;67.06;100793.61;112024;1242;21949;-77
2023/09/29 05:24:58;;;;;;;23.20;16.40;;;;;;;14.21;67.07;100793.14;112229;1238;22703;-78
2023/09/29 05:27:43;;;;;;;16.00;14.00;;;;;;;14.25;67.03;100792.98;111958;1244;21945;-77
2023/09/29 05:30:38;;;;;;;17.40;15.80;;;;;;;14.30;67.08;100796.09;111942;1244;23050;-78
2023/09/29 05:33:22;;;;;;;18.60;14.70;;;;;;;14.34;67.08;100798.84;112213;1239;22041;-77
2023/09/29 05:36:17;;;;;;;18.00;15.90;;;;;;;14.40;67.04;100796.84;112334;1239;21907;-77
2023/09/29 05:39:12;;;;;;;18.50;16.50;;;;;;;14.46;67.00;100798.14;112404;1239;22108;-79
2023/09/29 05:41:48;;;;;;;15.50;13.90;;;;;;;14.55;66.86;100801.77;112226;1243;22001;-78
2023/09/29 05:44:43;;;;;;;19.40;15.40;;;;;;;14.63;66.77;100802.07;111970;1243;21986;-79
2023/09/29 05:47:52;;;;;;;18.00;14.50;;;;;;;14.70;66.80;100802.27;112419;1241;21966;-77
2023/09/29 05:50:37;;;;;;;17.60;15.30;;;;;;;14.79;66.69;100805.36;111655;1248;22052;-78
2023/09/29 05:53:24;;;;;;;19.10;14.90;;;;;;;14.90;66.26;100807.30;111209;1252;21980;-77
2023/09/29 05:55:53;;;;;;;30.70;27.30;;;;;;;14.90;66.23;100800.46;110668;1258;24600;-78
2023/09/29 05:58:23;;;;;;;23.70;21.40;;;;;;;14.97;66.10;100800.62;110744;1258;22466;-77
2023/09/29 06:00:55;;;;;;;20.00;15.10;;;;;;;15.11;66.07;100815.35;110663;1259;21932;-78
2023/09/29 06:03:25;;;;;;;20.40;14.30;;;;;;;15.18;65.67;100815.88;110619;1259;24310;-78
2023/09/29 06:06:04;;;;;;;16.40;14.20;;;;;;;15.26;65.56;100817.27;110409;1263;21986;-78
2023/09/29 06:08:42;;;;;;;16.20;14.10;;;;;;;15.33;65.64;100817.08;110364;1260;23036;-78
2023/09/29 06:11:37;;;;;;;20.30;14.70;;;;;;;15.40;65.32;100819.34;110700;1255;21972;-79
2023/09/29 06:14:08;;;;;;;25.40;14.70;;;;;;;15.48;65.24;100824.20;111129;1253;21961;-77
2023/09/29 06:16:43;;;;;;;14.90;13.40;;;;;;;15.58;65.13;100822.84;111517;1249;22231;-79
2023/09/29 06:19:42;;;;;;;16.30;14.40;;;;;;;15.68;64.85;100823.56;111686;1244;22853;-77
2023/09/29 06:22:22;;;;;;;17.70;13.30;;;;;;;15.77;64.74;100823.09;112225;1244;21976;-78
2023/09/29 06:25:09;;;;;;;21.00;18.90;;;;;;;15.89;64.72;100826.34;111959;1245;21991;-77
2023/09/29 06:28:08;;;;;;;21.60;17.20;;;;;;;16.02;64.51;100828.48;112691;1239;21970;-79
2023/09/29 06:30:59;;;;;;;18.00;14.60;;;;;;;16.18;64.34;100824.64;113081;1239;22322;-83
2023/09/29 06:33:38;;;;;;;18.50;14.00;;;;;;;16.35;63.95;100825.34;113101;1239;21953;-80
2023/09/29 06:36:23;;;;;;;19.70;13.80;;;;;;;16.52;63.72;100829.30;112908;1239;21973;-81
2023/09/29 06:39:06;;;;;;;16.80;13.10;;;;;;;16.73;63.45;100826.04;112661;1239;22386;-82
2023/09/29 06:41:46;;;;;;;17.20;13.20;;;;;;;16.98;63.25;100824.52;112997;1239;21931;-80
2023/09/29 06:44:43;;;;;;;16.00;13.40;;;;;;;17.30;63.10;100827.06;113236;1233;22735;-82
2023/09/29 06:47:31;;;;;;;13.50;11.60;;;;;;;17.68;62.51;100823.89;112929;1239;23587;-79
2023/09/29 06:50:26;;;;;;;17.10;12.60;;;;;;;18.13;61.73;100824.38;112695;1230;21978;-82
2023/09/29 06:53:05;;;;;;;23.20;13.40;;;;;;;18.62;60.72;100823.22;112922;1239;23765;-80
2023/09/29 06:55:55;;;;;;;15.40;11.80;;;;;;;19.12;59.68;100827.97;112752;1239;22708;-79
2023/09/29 06:58:48;;;;;;;15.60;11.50;;;;;;;19.62;58.25;100827.62;112963;1239;23620;-80
2023/09/29 07:01:47;;;;;;;17.30;11.60;;;;;;;20.08;57.19;100823.45;113129;1239;21938;-79
2023/09/29 07:04:47;;;;;;;14.90;11.00;;;;;;;20.53;55.81;100831.59;112886;1233;22943;-81
2023/09/29 07:07:33;;;;;;;12.80;10.10;;;;;;;20.88;54.56;100834.86;113374;1233;22083;-81
2023/09/29 07:10:53;;;;;;;13.00;10.50;;;;;;;21.22;53.31;100833.61;113786;1233;21934;-80
2023/09/29 07:13:35;;;;;;;19.20;16.10;;;;;;;21.56;52.70;100829.30;113586;1233;21939;-82
2023/09/29 07:16:33;;;;;;;23.00;18.80;;;;;;;21.92;51.97;100831.16;113052;1238;21969;-80
2023/09/29 07:19:30;;;;;;;14.30;10.20;;;;;;;22.28;50.84;100832.09;113315;1238;23674;-80
2023/09/29 07:22:22;;;;;;;16.30;10.00;;;;;;;22.58;49.91;100832.19;112657;1238;22897;-79
2023/09/29 07:24:59;;;;;;;15.70;10.10;;;;;;;22.79;49.09;100822.12;112440;1242;21969;-79
2023/09/29 07:27:49;;;;;;;15.30;9.90;;;;;;;23.08;48.38;100831.33;112534;1242;21983;-80
2023/09/29 07:30:24;;;;;;;16.00;9.50;;;;;;;23.42;48.10;100830.58;111936;1248;23648;-79
2023/09/29 07:32:59;;;;;;;15.20;10.10;;;;;;;23.67;47.38;100831.50;111795;1248;21983;-78
2023/09/29 07:35:40;;;;;;;13.20;9.00;;;;;;;23.89;46.38;100833.00;111976;1244;23792;-80
2023/09/29 07:38:30;;;;;;;16.00;7.70;;;;;;;24.06;45.66;100834.93;112337;1244;22123;-81
2023/09/29 07:41:25;;;;;;;12.40;8.80;;;;;;;24.30;45.45;100835.70;112248;1244;21983;-79
2023/09/29 07:44:45;;;;;;;;;;;;;;;;;;;;;
2023/09/29 07:47:37;;;;;;;9.20;7.80;;;;;;;24.66;43.95;100833.23;112400;1246;21988;-81
2023/09/29 07:51:07;;;;;;;12.40;7.50;;;;;;;24.82;43.13;100829.70;112736;1243;21945;-80
2023/09/29 07:53:52;;;;;;;15.40;7.60;;;;;;;24.94;42.60;100830.02;112668;1243;21941;-79
2023/09/29 07:56:52;;;;;;;17.30;7.70;;;;;;;25.18;42.55;100827.83;113233;1236;21979;-79
2023/09/29 08:00:01;;;;;;;13.70;8.40;;;;;;;25.36;42.05;100821.73;112925;1240;21970;-79
2023/09/29 08:02:57;;;;;;;12.30;6.70;;;;;;;25.53;41.84;100816.61;112486;1245;22078;-78
2023/09/29 08:05:44;;;;;;;14.10;8.20;;;;;;;25.67;41.30;100810.96;111843;1248;22439;-79
2023/09/29 08:08:38;;;;;;;17.70;7.30;;;;;;;25.79;40.90;100815.22;111460;1250;22417;-80
2023/09/29 08:11:40;;;;;;;11.60;6.90;;;;;;;25.88;40.92;100815.08;111201;1255;24044;-78
2023/09/29 08:14:24;;;;;;;12.30;7.70;;;;;;;26.07;40.90;100816.16;111102;1255;22019;-80
2023/09/29 08:17:27;;;;;;;11.30;7.10;;;;;;;26.30;41.02;100813.77;110813;1256;22048;-79
2023/09/29 08:20:17;;;;;;;9.20;6.80;;;;;;;26.53;39.72;100812.42;111062;1256;23045;-79
2023/09/29 08:23:00;;;;;;;12.80;7.70;;;;;;;26.71;39.60;100812.64;110574;1257;23767;-79
2023/09/29 08:25:57;;;;;;;14.90;7.40;;;;;;;26.86;38.17;100800.94;110833;1257;22026;-80
2023/09/29 08:28:47;;;;;;;14.10;7.70;;;;;;;26.91;38.25;100799.57;110592;1259;23604;-79
2023/09/29 08:31:39;;;;;;;15.40;7.30;;;;;;;27.04;38.18;100807.33;111092;1258;22057;-80
2023/09/29 08:34:28;;;;;;;12.80;6.70;;;;;;;27.08;37.70;100803.79;110871;1254;24307;-80
2023/09/29 08:37:08;;;;;;;11.10;8.30;;;;;;;27.08;37.19;100805.69;111027;1249;22057;-80
2023/09/29 08:39:47;;;;;;;19.50;6.70;;;;;;;27.19;37.61;100808.77;111662;1249;23578;-80
2023/09/29 08:42:40;;;;;;;16.40;7.10;;;;;;;27.38;37.36;100805.88;111902;1248;21950;-80
2023/09/29 08:45:35;;;;;;;18.40;6.40;;;;;;;27.52;36.91;100802.91;111840;1248;21968;-80
2023/09/29 08:48:11;;;;;;;14.10;6.00;;;;;;;27.66;36.58;100805.06;111893;1247;21979;-80
2023/09/29 08:50:50;;;;;;;8.00;6.20;;;;;;;27.87;36.31;100806.54;111787;1247;21968;-81
2023/09/29 08:53:28;;;;;;;13.10;6.50;;;;;;;27.95;35.99;100803.67;111834;1247;21978;-80
2023/09/29 08:56:16;;;;;;;8.50;5.80;;;;;;;27.95;35.53;100800.85;111565;1247;21978;-80
2023/09/29 08:58:57;;;;;;;14.20;7.40;;;;;;;28.09;35.90;100797.25;111651;1247;22021;-80
2023/09/29 09:01:35;;;;;;;10.70;6.20;;;;;;;28.38;35.43;100791.65;111576;1249;21963;-78
2023/09/29 09:04:15;;;;;;;10.10;6.30;;;;;;;28.49;34.43;100790.17;111712;1249;23108;-78
2023/09/29 09:07:12;;;;;;;11.80;6.00;;;;;;;28.55;34.55;100789.16;111299;1252;23053;-78
2023/09/29 09:10:03;;;;;;;14.50;6.70;;;;;;;28.74;34.78;100784.36;111180;1251;22148;-78
2023/09/29 09:13:11;;;;;;;15.50;6.70;;;;;;;29.00;33.90;100784.48;111455;1251;23040;-80
2023/09/29 09:16:22;;;;;;;17.50;6.20;;;;;;;29.08;32.96;100787.95;111790;1247;24300;-82
2023/09/29 09:19:42;;;;;;;14.90;6.20;;;;;;;29.02;32.55;100783.20;111983;1243;22835;-82
2023/09/29 09:22:38;;;;;;;11.60;5.40;;;;;;;29.19;33.01;100789.98;112342;1243;22045;-80
2023/09/29 09:25:59;;;;;;;10.90;5.50;;;;;;;29.28;32.33;100793.77;112536;1239;21953;-79
2023/09/29 09:29:13;;;;;;;9.30;5.80;;;;;;;29.49;32.73;100793.67;111360;1252;24508;-79
2023/09/29 09:31:55;;;;;;;8.00;5.60;;;;;;;29.73;32.29;100792.96;111538;1248;22516;-80
2023/09/29 09:35:02;;;;;;;10.60;5.80;;;;;;;29.91;31.92;100794.09;111823;1248;22378;-80
2023/09/29 09:38:15;;;;;;;16.30;6.50;;;;;;;30.19;32.32;100791.65;111809;1248;21995;-80
2023/09/29 09:41:04;;;;;;;13.30;6.50;;;;;;;30.42;30.85;100787.66;111742;1248;25275;-80
2023/09/29 09:43:54;;;;;;;17.10;6.60;;;;;;;30.51;30.89;100783.05;111845;1248;22168;-78
2023/09/29 09:46:41;;;;;;;16.10;6.00;;;;;;;30.65;30.80;100782.53;111866;1243;22422;-80
2023/09/29 09:49:47;;;;;;;14.20;5.50;;;;;;;30.69;30.23;100779.00;112463;1243;21938;-80
2023/09/29 09:52:38;;;;;;;12.40;5.50;;;;;;;30.69;30.23;100777.84;112148;1243;21985;-80
2023/09/29 09:55:15;;;;;;;14.00;6.30;;;;;;;30.72;29.65;100776.95;111784;1249;22761;-80
2023/09/29 09:58:22;;;;;;;;;;;;;;;;;;;;;
2023/09/29 10:01:10;;;;;;;12.80;5.90;;;;;;;30.88;30.40;100772.60;111871;1249;21959;-81
2023/09/29 10:03:50;;;;;;;10.70;5.10;;;;;;;31.10;29.39;100768.38;111645;1249;23046;-80
2023/09/29 10:06:21;;;;;;;18.00;6.20;;;;;;;31.17;28.62;100769.56;112396;1232;23026;-78
2023/09/29 10:09:08;;;;;;;8.40;4.80;;;;;;;31.25;28.75;100766.59;112332;1240;21948;-79
2023/09/29 10:11:52;;;;;;;15.30;5.60;;;;;;;31.38;28.21;100770.61;112543;1240;21987;-80
2023/09/29 10:14:48;;;;;;;9.70;4.30;;;;;;;31.51;27.70;100768.98;113593;1233;22708;-79
2023/09/29 10:17:23;;;;;;;9.60;4.70;;;;;;;31.59;27.85;100767.27;113214;1233;21985;-78
2023/09/29 10:20:05;;;;;;;11.40;4.80;;;;;;;31.73;27.59;100768.64;113027;1239;21975;-79
2023/09/29 10:22:39;;;;;;;9.10;4.90;;;;;;;31.77;27.29;100765.82;112701;1239;23586;-77
2023/09/29 10:25:19;;;;;;;12.20;4.80;;;;;;;31.72;27.35;100765.38;112486;1231;22801;-78
2023/09/29 10:28:06;;;;;;;12.40;4.60;;;;;;;31.78;27.34;100761.73;112750;1239;21954;-77
2023/09/29 10:30:47;;;;;;;16.20;5.10;;;;;;;31.92;27.57;100762.77;112900;1239;21944;-80
2023/09/29 10:33:19;;;;;;;17.70;5.40;;;;;;;32.05;27.09;100762.27;113142;1239;22366;-81
2023/09/29 10:36:12;;;;;;;12.20;5.40;;;;;;;31.99;26.36;100763.47;112875;1239;21946;-76
2023/09/29 10:39:05;;;;;;;7.50;4.70;;;;;;;31.94;27.16;100757.86;113253;1233;23725;-78
2023/09/29 10:41:56;;;;;;;10.50;6.00;;;;;;;31.88;26.45;100754.25;113435;1233;23571;-78
2023/09/29 10:44:56;;;;;;;9.70;5.20;;;;;;;31.90;26.81;100754.08;113428;1234;21965;-77
2023/09/29 10:47:45;;;;;;;14.20;4.70;;;;;;;32.05;27.10;100751.59;113242;1233;23589;-78
2023/09/29 10:50:54;;;;;;;11.70;4.70;;;;;;;32.22;26.85;100745.14;113390;1230;23008;-78
2023/09/29 10:53:46;;;;;;;6.80;4.40;;;;;;;32.02;26.42;100736.95;112724;1239;22187;-77
2023/09/29 10:56:25;;;;;;;12.10;4.50;;;;;;;31.61;26.58;100735.88;112800;1239;23117;-76
2023/09/29 10:59:15;;;;;;;12.00;5.10;;;;;;;31.16;27.15;100729.27;112693;1239;21950;-76
2023/09/29 11:01:49;;;;;;;12.10;5.00;;;;;;;30.75;27.67;100727.73;112657;1239;21950;-79
2023/09/29 11:04:36;;;;;;;10.90;5.10;;;;;;;30.37;28.23;100725.52;112877;1239;22791;-77
2023/09/29 11:07:51;;;;;;;16.70;5.40;;;;;;;30.08;28.83;100724.35;112488;1243;21948;-79
2023/09/29 11:10:28;;;;;;;12.30;4.60;;;;;;;29.82;29.33;100724.34;111223;1252;23626;-79
2023/09/29 11:13:18;;;;;;;14.50;4.90;;;;;;;29.59;29.70;100722.59;111834;1246;23059;-77
2023/09/29 11:16:24;;;;;;;13.40;5.50;;;;;;;29.42;30.17;100716.55;111572;1249;23489;-78
2023/09/29 11:19:33;;;;;;;15.40;5.20;;;;;;;29.19;30.23;100714.34;111349;1249;21987;-78
2023/09/29 11:22:31;;;;;;;11.40;4.90;;;;;;;28.84;30.63;100707.07;111572;1249;21994;-78
2023/09/29 11:25:20;;;;;;;14.90;6.10;;;;;;;28.62;31.21;100699.26;111754;1244;22858;-79
2023/09/29 11:27:55;;;;;;;13.20;5.60;;;;;;;28.56;31.53;100699.58;111477;1250;23029;-77
2023/09/29 11:30:39;;;;;;;13.30;5.80;;;;;;;28.46;31.74;100695.39;111526;1250;24305;-77
2023/09/29 11:33:14;;;;;;;8.30;5.80;;;;;;;28.38;31.81;100692.86;111220;1253;22901;-77
2023/09/29 11:35:53;;;;;;;8.50;5.50;;;;;;;28.26;31.88;100694.48;111250;1251;23697;-79
2023/09/29 11:38:39;;;;;;;14.20;5.80;;;;;;;28.18;32.51;100693.77;110985;1256;22736;-78
2023/09/29 11:41:12;;;;;;;15.60;5.00;;;;;;;28.17;32.47;100687.39;110559;1261;22050;-77
2023/09/29 11:43:48;;;;;;;15.20;4.90;;;;;;;28.16;32.48;100683.64;110171;1261;21990;-77
2023/09/29 11:46:36;;;;;;;7.80;4.70;;;;;;;28.12;32.54;100682.83;110255;1257;22006;-78
2023/09/29 11:50:09;;;;;;;;;;;;;;;;;;;;;
2023/09/29 11:53:44;;;;;;;10.70;4.80;;;;;;;27.92;32.43;100674.91;111139;1256;22054;-77
2023/09/29 11:56:26;;;;;;;18.30;5.10;;;;;;;27.89;32.63;100675.34;111132;1253;21975;-77
2023/09/29 11:59:14;;;;;;;10.50;4.60;;;;;;;27.91;32.71;100677.90;111401;1247;21992;-77
2023/09/29 12:01:48;;;;;;;7.30;4.00;;;;;;;27.92;32.76;100673.41;111532;1247;23339;-77
2023/09/29 12:04:22;;;;;;;8.70;3.70;;;;;;;27.93;32.51;100669.43;111264;1245;21984;-76
2023/09/29 12:06:54;;;;;;;6.30;4.40;;;;;;;27.87;32.12;100662.28;111908;1245;21986;-77
2023/09/29 12:09:26;;;;;;;16.70;4.80;;;;;;;27.83;32.03;100660.92;111875;1245;21998;-76
2023/09/29 12:12:00;;;;;;;10.00;4.40;;;;;;;27.83;32.22;100661.70;112620;1239;21997;-78
2023/09/29 12:14:31;;;;;;;12.40;3.70;;;;;;;27.81;32.10;100659.16;112739;1232;23018;-78
2023/09/29 12:17:05;;;;;;;18.00;4.50;;;;;;;27.76;31.88;100654.55;112295;1239;21938;-77
2023/09/29 12:19:55;;;;;;;11.80;5.50;;;;;;;27.71;31.95;100652.90;112648;1238;21944;-79
2023/09/29 12:22:29;;;;;;;16.30;6.00;;;;;;;27.66;32.03;100651.11;112537;1233;23431;-77
2023/09/29 12:25:18;;;;;;;12.40;4.80;;;;;;;27.59;32.45;100651.83;113572;1233;21953;-78
2023/09/29 12:27:53;;;;;;;8.40;4.90;;;;;;;27.57;32.66;100655.46;113583;1234;23672;-77
2023/09/29 12:30:37;;;;;;;11.50;4.50;;;;;;;27.52;32.72;100653.14;113198;1225;22996;-77
2023/09/29 12:33:10;;;;;;;14.60;4.70;;;;;;;27.48;33.02;100646.63;113294;1233;21934;-79
2023/09/29 12:35:44;;;;;;;14.30;5.20;;;;;;;27.43;33.00;100644.24;113571;1233;23009;-77